KGKJ

Port Meadville Airport

Meadville, Pennsylvania, USA
METAR KGKJ 161253Z AUTO VRB06KT 10SM -RA OVC055 03/02 A2995 RMK AO2 SLP151 P0001 T00330022 TSNO
Observed Flight Rules
Dec-16 @ 12:53 UTC (50 minutes ago) Visual Flight Rules
Wind Visibility Clouds Conditions
Variable at 6 knots 10 miles
  • Overcast at 5,500' AGL
  • Light Rain
Temperatures Readings Precipitation
Current 3°C / 37°F
Dewpoint 2°C / 36°F
Humidity 93%
Altimeter 29.95" Hg
Pressure 1015.1 hPa
Elevation 428
Current Rain 0.01
METAR KGKJ 161253Z AUTO VRB06KT 10SM -RA OVC055 03/02 A2995 RMK AO2 SLP151 P0001 T00330022 TSNO
Observed Flight Rules
Dec-16 @ 12:53 UTC
(50 minutes ago)
VFR
Wind Visibility
Variable at 6 knots 10 miles
Clouds
  • Overcast at 5,500' AGL
Conditions
  • Light Rain
Temperature Dewpoint
3°C / 37°F 2°C / 36°F
Humidity Altimeter Pressure
93% 29.95" Hg 1015.1 hPa
Current Rain
0.01